createdAt,value
2023-07-03T00:00:20.665Z,51.40
2023-07-03T00:03:23.832Z,51.74
2023-07-03T00:06:26.944Z,51.62
2023-07-03T00:09:30.029Z,51.43
2023-07-03T00:12:34.495Z,51.62
2023-07-03T00:15:38.011Z,51.61
2023-07-03T00:18:41.036Z,51.63
2023-07-03T00:21:45.074Z,50.98
2023-07-03T00:24:48.403Z,51.72
2023-07-03T00:27:55.131Z,51.55
2023-07-03T00:30:58.239Z,51.71
2023-07-03T00:34:01.283Z,51.35
2023-07-03T00:37:04.482Z,51.54
2023-07-03T00:40:10.201Z,51.52
2023-07-03T00:43:15.547Z,51.64
2023-07-03T00:46:18.744Z,51.76
2023-07-03T00:49:22.392Z,51.55
2023-07-03T00:52:25.769Z,51.62
2023-07-03T00:55:29.192Z,51.70
2023-07-03T00:58:34.145Z,51.86
2023-07-03T01:01:45.261Z,51.67
2023-07-03T01:04:53.539Z,51.88
2023-07-03T01:07:58.104Z,51.72
2023-07-03T01:11:01.712Z,51.93
2023-07-03T01:14:08.572Z,51.84
2023-07-03T01:17:12.658Z,51.68
2023-07-03T01:20:19.919Z,52.03
2023-07-03T01:23:29.856Z,51.62
2023-07-03T01:26:35.455Z,51.69
2023-07-03T01:29:41.760Z,52.23
2023-07-03T01:32:47.890Z,51.88
2023-07-03T01:35:53.183Z,52.17
2023-07-03T01:38:57.436Z,52.03
2023-07-03T01:42:02.514Z,52.13
2023-07-03T01:45:06.460Z,52.00
2023-07-03T01:48:10.017Z,51.66
2023-07-03T01:51:21.507Z,52.05
2023-07-03T01:54:31.789Z,52.13
2023-07-03T01:57:47.497Z,51.99
2023-07-03T02:00:54.285Z,52.13
2023-07-03T02:04:02.581Z,52.26
2023-07-03T02:07:08.468Z,51.81
2023-07-03T02:10:12.406Z,51.96
2023-07-03T02:13:16.828Z,52.05
2023-07-03T02:16:19.877Z,52.04
2023-07-03T02:19:30.159Z,51.96
2023-07-03T02:22:33.276Z,52.31
2023-07-03T02:25:36.886Z,52.21
2023-07-03T02:28:41.487Z,52.40
2023-07-03T02:31:44.533Z,52.40
2023-07-03T02:34:47.609Z,52.19
2023-07-03T02:37:50.612Z,52.35
2023-07-03T02:40:53.660Z,52.34
2023-07-03T02:43:58.186Z,52.49
2023-07-03T02:47:01.404Z,52.82
2023-07-03T02:50:05.072Z,52.66
2023-07-03T02:53:08.696Z,52.60
2023-07-03T02:56:12.160Z,52.53
2023-07-03T02:59:16.663Z,52.49
2023-07-03T03:02:21.609Z,52.88
2023-07-03T03:05:24.732Z,52.94
2023-07-03T03:08:27.822Z,53.07
2023-07-03T03:11:31.527Z,52.39
2023-07-03T03:14:36.592Z,52.26
2023-07-03T03:17:39.799Z,52.38
2023-07-03T03:20:43.971Z,52.15
2023-07-03T03:23:48.154Z,52.44
2023-07-03T03:26:51.255Z,52.40
2023-07-03T03:29:55.704Z,52.11
2023-07-03T03:32:58.919Z,52.31
2023-07-03T03:36:02.089Z,52.27
2023-07-03T03:39:05.608Z,52.25
2023-07-03T03:42:10.711Z,52.36
2023-07-03T03:45:15.164Z,52.09
2023-07-03T03:48:18.305Z,51.86
2023-07-03T03:51:21.376Z,52.31
2023-07-03T03:54:24.610Z,53.19
2023-07-03T03:57:27.882Z,53.40
2023-07-03T04:00:32.443Z,53.61
2023-07-03T04:03:35.708Z,52.74
2023-07-03T04:06:39.496Z,52.85
2023-07-03T04:09:42.575Z,54.07
2023-07-03T04:12:45.659Z,53.45
2023-07-03T04:16:00.668Z,53.17
2023-07-03T04:19:04.181Z,53.21
2023-07-03T04:22:07.623Z,53.00
2023-07-03T04:25:11.657Z,53.74
2023-07-03T04:28:15.556Z,53.26
2023-07-03T04:31:20.176Z,54.25
2023-07-03T04:34:23.484Z,54.45
2023-07-03T04:37:28.207Z,53.71
2023-07-03T04:40:31.603Z,53.67
2023-07-03T04:43:34.648Z,54.05
2023-07-03T04:46:39.854Z,54.33
2023-07-03T04:49:42.950Z,53.56
2023-07-03T04:52:47.700Z,54.49
2023-07-03T04:55:51.445Z,54.91
2023-07-03T04:58:54.749Z,53.96
2023-07-03T05:01:59.374Z,54.16
2023-07-03T05:05:02.773Z,54.57
2023-07-03T05:08:06.859Z,54.37
2023-07-03T05:11:10.009Z,53.86
2023-07-03T05:14:13.188Z,54.03
2023-07-03T05:17:17.617Z,54.33
2023-07-03T05:20:23.284Z,54.48
2023-07-03T05:23:26.388Z,53.96
2023-07-03T05:26:29.499Z,54.37
2023-07-03T05:29:34.786Z,54.63
2023-07-03T05:32:39.601Z,54.81
2023-07-03T05:35:50.659Z,54.77
2023-07-03T05:38:54.468Z,54.92
2023-07-03T05:41:57.637Z,55.12
2023-07-03T05:45:00.837Z,54.43
2023-07-03T05:48:05.674Z,54.00
2023-07-03T05:51:08.830Z,54.41
2023-07-03T05:54:11.866Z,54.40
2023-07-03T05:57:15.006Z,53.88
2023-07-03T06:00:19.002Z,53.17
2023-07-03T06:03:26.152Z,53.67
2023-07-03T06:06:29.530Z,53.73
2023-07-03T06:09:36.506Z,53.61
2023-07-03T06:12:39.961Z,54.15
2023-07-03T06:15:43.219Z,53.91
2023-07-03T06:18:47.790Z,54.16
2023-07-03T06:21:50.831Z,54.10
2023-07-03T06:24:53.928Z,53.88
2023-07-03T06:27:57.060Z,54.15
2023-07-03T06:31:00.390Z,53.93
2023-07-03T06:34:05.763Z,53.84
2023-07-03T06:37:08.848Z,54.09
2023-07-03T06:40:15.784Z,54.16
2023-07-03T06:43:18.876Z,53.82
2023-07-03T06:46:22.607Z,53.81
2023-07-03T06:49:27.156Z,54.14
2023-07-03T06:52:30.202Z,53.58
2023-07-03T06:55:33.386Z,53.58
2023-07-03T06:58:37.130Z,53.42
2023-07-03T07:01:42.609Z,53.38
2023-07-03T07:04:47.424Z,53.25
2023-07-03T07:07:50.530Z,52.84
2023-07-03T07:10:53.851Z,52.78
2023-07-03T07:13:59.340Z,52.92
2023-07-03T07:17:02.461Z,52.56
2023-07-03T07:20:08.499Z,52.51
2023-07-03T07:23:13.463Z,52.02
2023-07-03T07:26:16.684Z,52.30
2023-07-03T07:29:20.274Z,52.08
2023-07-03T07:32:26.304Z,52.38
2023-07-03T07:35:30.968Z,51.96
2023-07-03T07:38:34.147Z,52.15
2023-07-03T07:41:37.920Z,51.70
2023-07-03T07:44:41.067Z,51.75
2023-07-03T07:47:44.331Z,51.25
2023-07-03T07:50:48.931Z,51.67
2023-07-03T07:53:52.722Z,51.05
2023-07-03T07:56:55.925Z,51.52
2023-07-03T07:59:59.309Z,51.24
2023-07-03T08:03:02.578Z,51.32
2023-07-03T08:06:07.559Z,51.32
2023-07-03T08:09:10.751Z,51.59
2023-07-03T08:12:13.912Z,51.29
2023-07-03T08:15:17.385Z,50.98
2023-07-03T08:18:21.561Z,51.34
2023-07-03T08:21:26.154Z,51.59
2023-07-03T08:24:29.389Z,51.23
2023-07-03T08:27:32.637Z,51.54
2023-07-03T08:30:35.841Z,51.02
2023-07-03T08:33:38.973Z,51.37
2023-07-03T08:39:49.820Z,51.36
2023-07-03T08:42:55.912Z,50.76
2023-07-03T08:45:59.667Z,51.19
2023-07-03T08:49:05.477Z,51.48
2023-07-03T08:52:10.906Z,50.81
2023-07-03T08:55:18.649Z,50.46
2023-07-03T08:58:22.609Z,50.07
2023-07-03T09:01:33.751Z,50.13
2023-07-03T09:04:49.631Z,49.94
2023-07-03T09:07:57.146Z,50.15
2023-07-03T09:11:01.126Z,49.98
2023-07-03T09:14:05.422Z,50.10
2023-07-03T09:17:11.040Z,49.94
2023-07-03T09:20:16.818Z,50.47
2023-07-03T09:23:24.000Z,50.28
2023-07-03T09:26:34.357Z,49.93
2023-07-03T09:29:38.963Z,49.50
2023-07-03T09:32:42.169Z,50.02
2023-07-03T09:35:45.339Z,50.22
2023-07-03T09:38:49.844Z,49.69
2023-07-03T09:41:54.385Z,49.55
2023-07-03T09:44:57.530Z,49.64
2023-07-03T09:48:04.194Z,50.00
2023-07-03T09:51:09.112Z,49.58
2023-07-03T09:54:23.094Z,50.14
2023-07-03T09:57:28.184Z,49.66
2023-07-03T10:00:31.761Z,49.70
2023-07-03T10:03:38.446Z,49.90
2023-07-03T10:06:45.624Z,49.90
2023-07-03T10:13:05.246Z,49.44
2023-07-03T10:16:09.312Z,49.67
2023-07-03T10:19:12.998Z,49.48
2023-07-03T10:22:17.078Z,49.91
2023-07-03T10:25:29.862Z,49.75
2023-07-03T10:28:39.872Z,49.56
2023-07-03T10:31:49.076Z,49.66
2023-07-03T10:35:00.052Z,49.80
2023-07-03T10:38:11.456Z,49.75
2023-07-03T10:41:22.207Z,49.91
2023-07-03T10:44:28.855Z,50.07
2023-07-03T10:47:38.572Z,49.64
2023-07-03T10:50:50.369Z,49.91
2023-07-03T10:53:57.359Z,50.07
2023-07-03T10:57:04.988Z,49.77
2023-07-03T11:00:14.370Z,49.73
2023-07-03T11:03:29.485Z,50.33
2023-07-03T11:06:43.752Z,49.98
2023-07-03T11:09:56.052Z,49.85
2023-07-03T11:13:07.336Z,49.45
2023-07-03T11:16:15.433Z,49.79
2023-07-03T11:22:47.963Z,49.28
2023-07-03T11:29:06.261Z,49.66
2023-07-03T11:32:11.345Z,49.58
2023-07-03T11:45:01.819Z,49.77
2023-07-03T11:48:05.621Z,49.43
2023-07-03T11:51:12.357Z,49.93
2023-07-03T11:54:19.806Z,49.68
2023-07-03T11:57:35.275Z,49.59
2023-07-03T12:00:40.051Z,49.52
2023-07-03T12:03:53.312Z,49.44
2023-07-03T12:06:56.499Z,49.72
2023-07-03T12:10:29.261Z,49.79
2023-07-03T12:13:46.572Z,49.75
2023-07-03T12:16:51.283Z,49.82
2023-07-03T12:19:59.504Z,49.03
2023-07-03T12:23:02.744Z,49.28
2023-07-03T12:26:08.365Z,49.26
2023-07-03T12:29:11.437Z,49.21
2023-07-03T12:32:26.370Z,49.14
2023-07-03T12:35:33.084Z,48.79
2023-07-03T12:38:37.156Z,49.32
2023-07-03T12:41:40.413Z,49.43
2023-07-03T12:44:43.591Z,49.30
2023-07-03T12:48:01.582Z,49.25
2023-07-03T12:51:04.779Z,49.16
2023-07-03T12:54:09.334Z,48.99
2023-07-03T12:57:12.944Z,49.45
2023-07-03T13:00:22.398Z,49.35
2023-07-03T13:03:27.060Z,48.98
2023-07-03T13:06:31.816Z,49.21
2023-07-03T13:09:35.045Z,49.48
2023-07-03T13:12:38.216Z,48.85
2023-07-03T13:15:43.736Z,49.48
2023-07-03T13:19:01.546Z,48.94
2023-07-03T13:22:08.926Z,49.22
2023-07-03T13:25:14.421Z,49.28
2023-07-03T13:28:25.404Z,48.92
2023-07-03T13:31:46.620Z,49.35
2023-07-03T13:35:01.681Z,48.91
2023-07-03T13:38:22.081Z,49.43
2023-07-03T13:41:25.426Z,49.24
2023-07-03T13:44:28.806Z,49.19
2023-07-03T13:47:31.923Z,49.23
2023-07-03T13:50:37.235Z,49.40
2023-07-03T13:53:40.267Z,49.55
2023-07-03T13:56:45.447Z,48.88
2023-07-03T13:59:48.473Z,49.30
2023-07-03T14:02:52.170Z,49.27
2023-07-03T14:05:56.756Z,49.32
2023-07-03T14:08:59.818Z,49.26
2023-07-03T14:12:03.400Z,49.10
2023-07-03T14:15:15.430Z,48.84
2023-07-03T14:18:18.859Z,49.36
2023-07-03T14:21:25.374Z,49.42
2023-07-03T14:24:28.859Z,49.81
2023-07-03T14:27:36.104Z,49.63
2023-07-03T14:30:39.309Z,49.88
2023-07-03T14:33:42.517Z,49.54
2023-07-03T14:36:47.038Z,49.90
2023-07-03T14:39:50.165Z,49.55
2023-07-03T14:42:53.539Z,49.22
2023-07-03T14:45:56.741Z,49.37
2023-07-03T14:48:59.872Z,49.32
2023-07-03T14:52:04.432Z,49.32
2023-07-03T14:55:08.442Z,49.78
2023-07-03T14:58:12.086Z,49.83
2023-07-03T15:01:15.322Z,50.16
2023-07-03T15:04:18.787Z,49.93
2023-07-03T15:07:23.377Z,49.66
2023-07-03T15:10:27.468Z,50.25
2023-07-03T15:13:30.704Z,49.71
2023-07-03T15:16:35.780Z,49.74
2023-07-03T15:19:39.553Z,49.27
2023-07-03T15:22:44.011Z,49.12
2023-07-03T15:25:47.036Z,49.38
2023-07-03T15:28:50.261Z,49.30
2023-07-03T15:31:54.641Z,49.52
2023-07-03T15:34:57.730Z,49.57
2023-07-03T15:38:02.188Z,49.81
2023-07-03T15:41:05.288Z,48.88
2023-07-03T15:44:08.430Z,49.36
2023-07-03T15:47:12.431Z,49.47
2023-07-03T15:50:15.886Z,49.32
2023-07-03T15:53:20.620Z,49.41
2023-07-03T15:56:23.743Z,49.29
2023-07-03T15:59:27.201Z,49.63
2023-07-03T16:02:30.925Z,49.74
2023-07-03T16:05:34.008Z,49.79
2023-07-03T16:08:40.845Z,50.00
2023-07-03T16:11:43.990Z,50.40
2023-07-03T16:14:49.098Z,49.58
2023-07-03T16:17:52.401Z,49.76
2023-07-03T16:20:58.036Z,50.01
2023-07-03T16:24:04.210Z,50.31
2023-07-03T16:27:07.624Z,50.43
2023-07-03T16:30:12.002Z,50.45
2023-07-03T16:33:15.302Z,50.38
2023-07-03T16:36:21.577Z,50.48
2023-07-03T16:39:26.246Z,51.21
2023-07-03T16:42:29.451Z,51.13
2023-07-03T16:45:32.638Z,50.71
2023-07-03T16:48:36.030Z,50.29
2023-07-03T16:51:39.085Z,50.77
2023-07-03T16:54:43.727Z,50.62
2023-07-03T16:57:46.788Z,50.81
2023-07-03T17:00:49.854Z,51.34
2023-07-03T17:03:56.438Z,51.46
2023-07-03T17:06:59.861Z,51.36
2023-07-03T17:10:04.498Z,51.93
2023-07-03T17:13:08.358Z,52.20
2023-07-03T17:16:11.943Z,51.83
2023-07-03T17:19:15.211Z,52.29
2023-07-03T17:22:19.645Z,51.77
2023-07-03T17:25:24.170Z,52.12
2023-07-03T17:28:27.299Z,51.74
2023-07-03T17:31:30.478Z,51.71
2023-07-03T17:34:33.556Z,51.63
2023-07-03T17:37:36.641Z,51.10
2023-07-03T17:40:41.812Z,51.57
2023-07-03T17:43:44.927Z,51.25
2023-07-03T17:46:48.161Z,51.24
2023-07-03T17:49:51.300Z,51.32
2023-07-03T17:52:54.442Z,51.16
2023-07-03T17:55:58.963Z,51.25
2023-07-03T17:59:02.112Z,51.01
2023-07-03T18:02:06.988Z,51.22
2023-07-03T18:05:10.412Z,51.36
2023-07-03T18:08:13.884Z,51.37
2023-07-03T18:11:19.369Z,51.81
2023-07-03T18:14:22.678Z,51.27
2023-07-03T18:17:26.222Z,51.35
2023-07-03T18:20:29.295Z,51.83
2023-07-03T18:23:32.651Z,52.06
2023-07-03T18:26:37.050Z,51.96
2023-07-03T18:29:40.710Z,51.69
2023-07-03T18:32:44.173Z,51.95
2023-07-03T18:35:47.282Z,52.13
2023-07-03T18:38:50.715Z,51.73
2023-07-03T18:41:55.200Z,51.77
2023-07-03T18:44:58.282Z,51.68
2023-07-03T18:48:01.431Z,52.10
2023-07-03T18:51:04.821Z,51.62
2023-07-03T18:54:07.973Z,52.07
2023-07-03T18:57:12.791Z,51.85
2023-07-03T19:00:17.033Z,51.89
2023-07-03T19:03:21.385Z,51.87
2023-07-03T19:06:24.660Z,51.97
2023-07-03T19:09:27.767Z,51.68
2023-07-03T19:12:32.335Z,51.70
2023-07-03T19:15:36.563Z,52.10
2023-07-03T19:18:40.643Z,52.41
2023-07-03T19:21:44.469Z,51.90
2023-07-03T19:24:49.046Z,52.10
2023-07-03T19:27:53.595Z,52.30
2023-07-03T19:30:58.765Z,51.76
2023-07-03T19:34:03.466Z,51.81
2023-07-03T19:37:06.849Z,51.28
2023-07-03T19:40:11.137Z,52.03
2023-07-03T19:43:15.810Z,51.92
2023-07-03T19:46:18.892Z,52.21
2023-07-03T19:49:23.419Z,52.12
2023-07-03T19:52:26.620Z,51.86
2023-07-03T19:55:29.757Z,51.76
2023-07-03T19:58:34.248Z,51.78
2023-07-03T20:01:38.817Z,51.93
2023-07-03T20:04:42.153Z,51.79
2023-07-03T20:07:45.214Z,51.85
2023-07-03T20:10:48.867Z,52.23
2023-07-03T20:13:54.602Z,52.11
2023-07-03T20:16:57.735Z,52.37
2023-07-03T20:20:00.896Z,52.54
2023-07-03T20:23:03.970Z,52.51
2023-07-03T20:26:07.048Z,52.02
2023-07-03T20:29:12.076Z,52.06
2023-07-03T20:32:15.124Z,52.34
2023-07-03T20:35:18.233Z,51.99
2023-07-03T20:38:21.238Z,51.76
2023-07-03T20:41:24.473Z,51.93
2023-07-03T20:44:29.043Z,52.40
2023-07-03T20:47:32.922Z,52.63
2023-07-03T20:50:36.003Z,52.56
2023-07-03T20:53:49.007Z,52.62
2023-07-03T20:56:52.223Z,52.18
2023-07-03T20:59:56.684Z,52.16
2023-07-03T21:02:59.867Z,52.30
2023-07-03T21:06:03.241Z,51.94
2023-07-03T21:09:07.117Z,52.22
2023-07-03T21:12:10.378Z,52.40
2023-07-03T21:15:14.916Z,52.56
2023-07-03T21:18:18.070Z,52.12
2023-07-03T21:21:23.419Z,52.14
2023-07-03T21:24:26.511Z,51.98
2023-07-03T21:27:29.873Z,51.82
2023-07-03T21:30:34.298Z,52.02
2023-07-03T21:33:37.315Z,51.95
2023-07-03T21:36:40.764Z,52.31
2023-07-03T21:39:43.806Z,52.14
2023-07-03T21:42:46.844Z,52.07
2023-07-03T21:46:02.052Z,51.95
2023-07-03T21:49:05.256Z,51.90
2023-07-03T21:52:08.475Z,51.99
2023-07-03T21:55:11.768Z,52.08
2023-07-03T21:58:14.915Z,52.24
2023-07-03T22:01:23.298Z,52.18
2023-07-03T22:04:28.090Z,52.02
2023-07-03T22:07:31.185Z,51.93
2023-07-03T22:10:34.259Z,52.01
2023-07-03T22:13:37.357Z,51.97
2023-07-03T22:16:42.047Z,51.97
2023-07-03T22:19:45.164Z,51.98
2023-07-03T22:22:49.202Z,51.58
2023-07-03T22:25:56.908Z,51.63
2023-07-03T22:29:00.161Z,51.16
2023-07-03T22:32:05.034Z,51.50
2023-07-03T22:35:08.791Z,51.55
2023-07-03T22:38:11.893Z,51.59
2023-07-03T22:41:16.093Z,51.41
2023-07-03T22:44:19.104Z,51.58
2023-07-03T22:47:23.801Z,51.69
2023-07-03T22:50:28.325Z,51.71
2023-07-03T22:53:31.397Z,51.75
2023-07-03T22:56:34.433Z,51.43
2023-07-03T22:59:37.670Z,51.88
2023-07-03T23:02:42.579Z,51.90
2023-07-03T23:05:47.145Z,51.58
2023-07-03T23:08:50.625Z,51.94
2023-07-03T23:11:54.429Z,51.66
2023-07-03T23:14:57.834Z,51.33
2023-07-03T23:18:02.416Z,51.49
2023-07-03T23:21:10.197Z,51.52
2023-07-03T23:24:13.419Z,51.56
2023-07-03T23:27:20.588Z,51.69
2023-07-03T23:30:24.127Z,52.00
2023-07-03T23:33:30.426Z,51.70
2023-07-03T23:36:34.773Z,51.69
2023-07-03T23:39:38.588Z,51.45
2023-07-03T23:42:41.791Z,51.49
2023-07-03T23:45:44.868Z,51.27
2023-07-03T23:48:49.997Z,51.49
2023-07-03T23:51:53.386Z,51.49
2023-07-03T23:54:58.889Z,51.10
2023-07-03T23:58:01.928Z,51.36
